Time;durP1;ratioP1;P1;durP2;ratioP2;P2;SDS_P1;SDS_P2;PMS_P1;PMS_P2;Temp;Humidity;BMP_temperature;BMP_pressure;BME280_temperature;BME280_humidity;BME280_pressure;Samples;Min_cycle;Max_cycle;Signal;HPM_P1;HPM_P2
2022/10/03 00:01:55;;;;;;;1.58;1.20;;;16.10;60.00;;;;;;5076878;28;20035;-84
2022/10/03 00:04:27;;;;;;;1.10;1.10;;;16.10;60.00;;;;;;5076704;28;20035;-82
2022/10/03 00:07:25;;;;;;;1.40;1.00;;;16.10;60.00;;;;;;5058798;28;20052;-81
2022/10/03 00:10:15;;;;;;;1.08;1.08;;;16.10;59.70;;;;;;5075595;28;20032;-80
2022/10/03 00:12:50;;;;;;;1.33;1.23;;;16.10;59.70;;;;;;5076508;28;20021;-81
2022/10/03 00:15:45;;;;;;;1.20;1.20;;;16.10;59.90;;;;;;5076752;28;20470;-80
2022/10/03 00:18:23;;;;;;;1.27;1.17;;;16.10;59.70;;;;;;5069351;28;20047;-81
2022/10/03 00:21:06;;;;;;;1.27;1.17;;;16.10;59.90;;;;;;5076452;28;20356;-80
2022/10/03 00:23:47;;;;;;;1.10;1.10;;;16.10;59.80;;;;;;5076605;28;20033;-80
2022/10/03 00:26:27;;;;;;;1.17;1.17;;;16.10;59.90;;;;;;5075610;28;20047;-81
2022/10/03 00:29:12;;;;;;;1.40;1.30;;;16.10;59.90;;;;;;5058782;28;20025;-81
2022/10/03 00:31:49;;;;;;;2.55;1.42;;;16.00;59.80;;;;;;5076158;28;20153;-81
2022/10/03 00:34:18;;;;;;;1.60;1.50;;;16.00;59.80;;;;;;5076024;28;20065;-80
2022/10/03 00:37:09;;;;;;;1.42;1.33;;;16.00;59.90;;;;;;5076269;28;20107;-81
2022/10/03 00:39:45;;;;;;;1.48;1.38;;;16.00;59.80;;;;;;5076345;28;20506;-81
2022/10/03 00:42:39;;;;;;;1.30;1.20;;;16.00;59.90;;;;;;5075720;28;20106;-80
2022/10/03 00:45:27;;;;;;;1.30;1.30;;;16.00;59.80;;;;;;5076277;28;20374;-77
2022/10/03 00:48:23;;;;;;;1.83;1.73;;;16.00;59.80;;;;;;5075919;28;20112;-81
2022/10/03 00:51:13;;;;;;;1.05;1.05;;;15.90;59.90;;;;;;5075738;28;20037;-78
2022/10/03 00:53:40;;;;;;;1.08;1.08;;;15.90;60.00;;;;;;5075995;28;20032;-81
2022/10/03 00:56:29;;;;;;;1.23;1.13;;;15.90;60.00;;;;;;5075728;28;20447;-77
2022/10/03 00:59:28;;;;;;;0.90;0.90;;;15.90;60.00;;;;;;5075625;28;20060;-80
2022/10/03 01:01:54;;;;;;;1.40;1.30;;;15.90;60.00;;;;;;5079428;28;20028;-82
2022/10/03 01:04:43;;;;;;;1.67;1.58;;;15.90;60.10;;;;;;5082752;28;20025;-82
2022/10/03 01:07:48;;;;;;;1.08;1.08;;;15.90;60.10;;;;;;5075711;28;20051;-81
2022/10/03 01:10:49;;;;;;;1.20;1.20;;;15.90;60.10;;;;;;5075930;28;20448;-81
2022/10/03 01:13:22;;;;;;;1.60;1.35;;;15.90;60.10;;;;;;5075409;28;20033;-81
2022/10/03 01:16:06;;;;;;;1.55;1.45;;;15.90;60.20;;;;;;5075367;28;20029;-81
2022/10/03 01:18:36;;;;;;;1.40;1.30;;;15.90;60.20;;;;;;5075383;28;20025;-82
2022/10/03 01:21:13;;;;;;;1.65;1.55;;;15.90;60.30;;;;;;5075252;28;20044;-82
2022/10/03 01:23:58;;;;;;;1.40;1.23;;;15.90;60.30;;;;;;5075243;28;20020;-81
2022/10/03 01:26:27;;;;;;;1.55;1.45;;;15.90;60.40;;;;;;5074917;28;20021;-80
2022/10/03 01:31:51;;;;;;;1.92;1.38;;;15.90;60.50;;;;;;5075011;28;20063;-77
2022/10/03 01:34:36;;;;;;;2.05;1.60;;;15.90;60.50;;;;;;5074831;28;20033;-80
2022/10/03 01:37:22;;;;;;;1.30;1.30;;;15.90;60.60;;;;;;5075229;28;20028;-81
2022/10/03 01:40:07;;;;;;;1.27;1.17;;;15.80;60.60;;;;;;5056838;28;20028;-80
2022/10/03 01:42:42;;;;;;;1.60;1.50;;;15.80;60.70;;;;;;5074824;28;20072;-79
2022/10/03 01:45:30;;;;;;;1.67;1.42;;;15.80;60.80;;;;;;5074509;28;20021;-80
2022/10/03 01:48:06;;;;;;;1.63;1.52;;;15.80;60.80;;;;;;5074517;28;20039;-81
2022/10/03 01:50:43;;;;;;;1.60;1.50;;;15.80;60.90;;;;;;5074727;28;20072;-81
2022/10/03 01:53:47;;;;;;;1.77;1.50;;;15.70;61.00;;;;;;5056773;28;20033;-82
2022/10/03 01:56:31;;;;;;;2.08;1.70;;;15.80;61.00;;;;;;5074448;28;20463;-82
2022/10/03 01:59:08;;;;;;;1.90;1.80;;;15.70;61.00;;;;;;5074538;28;20455;-80
2022/10/03 02:01:54;;;;;;;1.50;1.40;;;15.70;61.00;;;;;;5074221;28;20115;-81
2022/10/03 02:04:47;;;;;;;1.42;1.33;;;15.70;61.10;;;;;;5074395;28;20078;-81
2022/10/03 02:07:40;;;;;;;1.90;1.70;;;15.70;61.10;;;;;;5074341;28;20066;-81
2022/10/03 02:10:27;;;;;;;1.50;1.40;;;15.70;61.20;;;;;;5074521;28;20031;-81
2022/10/03 02:13:27;;;;;;;1.85;1.50;;;15.70;61.20;;;;;;5056406;28;20021;-82
2022/10/03 02:15:56;;;;;;;1.33;1.23;;;15.70;61.30;;;;;;5074388;28;20112;-81
2022/10/03 02:18:46;;;;;;;1.50;1.40;;;15.70;61.30;;;;;;5074351;28;20052;-81
2022/10/03 02:21:28;;;;;;;1.25;1.20;;;15.70;61.40;;;;;;5074438;28;20035;-81
2022/10/03 02:24:15;;;;;;;2.47;1.60;;;15.70;61.40;;;;;;5074147;28;20029;-81
2022/10/03 02:26:49;;;;;;;1.58;1.48;;;15.70;61.40;;;;;;5056183;28;20044;-80
2022/10/03 02:29:30;;;;;;;1.27;1.23;;;15.60;62.00;;;;;;5074226;28;20502;-81
2022/10/03 02:32:26;;;;;;;1.70;1.60;;;15.60;61.50;;;;;;5074110;28;20028;-81
2022/10/03 02:35:10;;;;;;;1.77;1.60;;;15.70;61.60;;;;;;5073856;28;20113;-82
2022/10/03 02:37:54;;;;;;;1.27;1.27;;;15.60;61.60;;;;;;5073970;28;20024;-81
2022/10/03 02:40:47;;;;;;;1.65;1.55;;;15.60;61.70;;;;;;5074010;28;20076;-82
2022/10/03 02:43:33;;;;;;;1.48;1.40;;;15.60;61.80;;;;;;5073817;28;20076;-81
2022/10/03 02:46:29;;;;;;;1.48;1.40;;;15.60;61.80;;;;;;5055936;28;20051;-81
2022/10/03 02:49:33;;;;;;;1.52;1.42;;;15.60;61.90;;;;;;5073298;28;20495;-82
2022/10/03 02:52:23;;;;;;;1.63;1.52;;;15.60;61.90;;;;;;5073391;28;20387;-81
2022/10/03 02:54:53;;;;;;;1.45;1.40;;;15.60;62.00;;;;;;5073774;28;20455;-82
2022/10/03 02:57:38;;;;;;;1.63;1.52;;;15.60;62.00;;;;;;5073789;28;20027;-80
2022/10/03 03:00:07;;;;;;;1.45;1.35;;;15.60;62.10;;;;;;5073469;28;20090;-80
2022/10/03 03:02:32;;;;;;;1.67;1.50;;;15.60;62.10;;;;;;5073670;28;20044;-80
2022/10/03 03:05:32;;;;;;;1.70;1.60;;;15.60;62.10;;;;;;5073850;28;20028;-80
2022/10/03 03:08:13;;;;;;;1.40;1.35;;;15.60;62.20;;;;;;5073484;28;20070;-81
2022/10/03 03:11:19;;;;;;;1.45;1.35;;;15.60;62.20;;;;;;5073394;28;20059;-81
2022/10/03 03:14:07;;;;;;;1.50;1.40;;;15.60;62.30;;;;;;5056485;28;20432;-80
2022/10/03 03:16:51;;;;;;;1.67;1.58;;;15.60;62.30;;;;;;5073824;28;20036;-82
2022/10/03 03:19:29;;;;;;;1.77;1.50;;;15.60;62.30;;;;;;5055722;28;20024;-81
2022/10/03 03:22:23;;;;;;;1.70;1.60;;;15.60;62.40;;;;;;5062875;28;20575;-80
2022/10/03 03:25:07;;;;;;;1.23;1.23;;;15.70;62.50;;;;;;5073713;28;20033;-82
2022/10/03 03:27:44;;;;;;;1.90;1.80;;;15.70;62.50;;;;;;5073838;28;20025;-82
2022/10/03 03:30:19;;;;;;;1.55;1.45;;;15.70;62.50;;;;;;5073597;28;20025;-82
2022/10/03 03:33:05;;;;;;;1.58;1.48;;;15.70;62.50;;;;;;5073370;28;20219;-80
2022/10/03 03:35:58;;;;;;;2.60;2.28;;;15.60;62.50;;;;;;5055482;28;20024;-80
2022/10/03 03:38:47;;;;;;;6.85;4.90;;;15.70;62.60;;;;;;5073556;28;20020;-81
2022/10/03 03:41:18;;;;;;;6.38;4.70;;;15.70;62.70;;;;;;5073461;28;20497;-77
2022/10/03 03:44:21;;;;;;;7.80;4.78;;;15.70;62.70;;;;;;5073178;28;20031;-80
2022/10/03 03:47:13;;;;;;;7.22;5.05;;;15.70;62.80;;;;;;5073388;28;20032;-82
2022/10/03 03:49:58;;;;;;;6.43;4.70;;;15.70;62.80;;;;;;5055387;28;20056;-81
2022/10/03 03:52:36;;;;;;;7.07;4.20;;;15.70;62.80;;;;;;5073100;28;20040;-81
2022/10/03 03:55:14;;;;;;;5.05;3.78;;;15.70;62.90;;;;;;5073460;28;20056;-81
2022/10/03 03:57:45;;;;;;;4.55;3.42;;;15.70;62.90;;;;;;5073340;28;20466;-81
2022/10/03 04:00:44;;;;;;;4.22;3.17;;;15.70;63.00;;;;;;5073901;28;20150;-82
2022/10/03 04:03:39;;;;;;;3.50;2.80;;;15.70;63.10;;;;;;5076967;28;20024;-79
2022/10/03 04:06:34;;;;;;;3.15;2.70;;;15.70;63.10;;;;;;5045187;28;20043;-81
2022/10/03 04:09:21;;;;;;;3.20;2.63;;;15.70;63.20;;;;;;5058394;28;20082;-81
2022/10/03 04:12:06;;;;;;;3.97;3.20;;;15.70;63.20;;;;;;5076874;28;20499;-81
2022/10/03 04:14:37;;;;;;;3.15;2.47;;;15.70;63.30;;;;;;5076482;28;20032;-79
2022/10/03 04:20:15;;;;;;;2.22;1.98;;;15.70;63.40;;;;;;5076190;28;20044;-81
2022/10/03 04:22:44;;;;;;;1.75;1.65;;;15.70;63.40;;;;;;5076467;28;20025;-81
2022/10/03 04:25:19;;;;;;;1.90;1.80;;;15.70;63.50;;;;;;5076732;28;20036;-77
2022/10/03 04:28:06;;;;;;;1.90;1.80;;;15.70;63.50;;;;;;5076111;28;20085;-82
2022/10/03 04:30:37;;;;;;;3.67;2.10;;;15.70;63.60;;;;;;5076433;28;20100;-81
2022/10/03 04:33:25;;;;;;;2.28;2.08;;;15.70;63.60;;;;;;5076169;28;20028;-83
2022/10/03 04:36:14;;;;;;;1.58;1.48;;;15.80;63.70;;;;;;5076329;28;20024;-81
2022/10/03 04:38:48;;;;;;;1.77;1.65;;;15.80;63.80;;;;;;5076609;28;20071;-80
2022/10/03 04:41:26;;;;;;;;;;;15.80;63.80;;;;;;5091004;28;20052;-82
2022/10/03 04:44:24;;;;;;;2.03;1.70;;;15.80;64.10;;;;;;5096009;28;20362;-79
2022/10/03 04:46:59;;;;;;;1.60;1.50;;;15.80;63.80;;;;;;5082700;28;20363;-78
2022/10/03 04:50:04;;;;;;;1.63;1.52;;;15.90;64.00;;;;;;5077641;28;20556;-79
2022/10/03 04:52:47;;;;;;;1.90;1.77;;;15.90;64.20;;;;;;5040466;28;20039;-81
2022/10/03 04:55:51;;;;;;;2.33;2.13;;;15.90;64.20;;;;;;5095940;28;20462;-80
2022/10/03 04:58:38;;;;;;;2.67;2.20;;;16.00;64.30;;;;;;5081875;28;20036;-79
2022/10/03 05:01:18;;;;;;;2.10;1.90;;;16.00;64.20;;;;;;5095231;28;20055;-81
2022/10/03 05:04:01;;;;;;;2.10;1.90;;;16.00;64.30;;;;;;5095621;28;20051;-81
2022/10/03 05:07:20;;;;;;;2.10;1.90;;;16.00;64.20;;;;;;5095310;28;20511;-81
2022/10/03 05:10:02;;;;;;;1.80;1.70;;;16.00;64.30;;;;;;5039931;28;20067;-81
2022/10/03 05:12:34;;;;;;;1.45;1.35;;;16.00;64.30;;;;;;5094751;28;20036;-80
2022/10/03 05:15:32;;;;;;;1.80;1.70;;;16.00;64.30;;;;;;5095400;28;20492;-80
2022/10/03 05:18:26;;;;;;;1.42;1.33;;;16.00;64.40;;;;;;5095819;28;20386;-80
2022/10/03 05:21:13;;;;;;;1.50;1.40;;;16.00;64.40;;;;;;5031161;28;20067;-80
2022/10/03 05:23:41;;;;;;;1.70;1.60;;;16.00;64.50;;;;;;5077494;28;20382;-79
2022/10/03 05:26:22;;;;;;;1.58;1.48;;;16.00;64.50;;;;;;5076566;28;20520;-78
2022/10/03 05:29:10;;;;;;;1.70;1.60;;;16.00;64.60;;;;;;5076966;28;20020;-85
2022/10/03 05:31:52;;;;;;;1.85;1.70;;;15.90;64.70;;;;;;5095330;28;20035;-78
2022/10/03 05:34:55;;;;;;;1.80;1.70;;;15.90;64.80;;;;;;5095118;28;20035;-81
2022/10/03 05:37:24;;;;;;;1.85;1.55;;;15.80;65.00;;;;;;5076860;28;20028;-78
2022/10/03 05:40:06;;;;;;;1.45;1.35;;;15.90;65.00;;;;;;5095525;28;20019;-82
2022/10/03 05:42:51;;;;;;;2.92;1.60;;;15.90;65.10;;;;;;5081043;28;20112;-81
2022/10/03 05:45:51;;;;;;;1.73;1.63;;;15.90;65.30;;;;;;5095458;28;20024;-82
2022/10/03 05:48:37;;;;;;;1.75;1.65;;;15.90;65.30;;;;;;5060213;28;20461;-83
2022/10/03 05:51:22;;;;;;;1.90;1.80;;;15.90;65.30;;;;;;5096003;28;20035;-85
2022/10/03 05:54:09;;;;;;;1.55;1.45;;;15.90;65.30;;;;;;5096319;28;20112;-81
2022/10/03 05:56:53;;;;;;;1.90;1.73;;;15.90;65.40;;;;;;5094391;28;20363;-79
2022/10/03 06:00:08;;;;;;;1.50;1.40;;;15.80;65.40;;;;;;5094122;28;20039;-79
2022/10/03 06:03:16;;;;;;;1.65;1.55;;;15.90;66.20;;;;;;5001962;28;20368;-80
2022/10/03 06:06:00;;;;;;;1.42;1.33;;;15.90;65.60;;;;;;5048812;28;20040;-79
2022/10/03 06:08:43;;;;;;;1.42;1.33;;;15.90;65.50;;;;;;5076397;28;20407;-79
2022/10/03 06:11:18;;;;;;;2.03;1.55;;;15.90;65.50;;;;;;5094717;28;20066;-80
2022/10/03 06:13:52;;;;;;;2.83;1.60;;;15.90;65.50;;;;;;5094307;28;20024;-79
2022/10/03 06:16:36;;;;;;;1.65;1.55;;;16.00;65.50;;;;;;5076423;28;20378;-79
2022/10/03 06:19:07;;;;;;;1.70;1.60;;;16.00;65.50;;;;;;5094956;28;20024;-80
2022/10/03 06:22:06;;;;;;;1.92;1.80;;;16.00;65.50;;;;;;5076437;28;20447;-78
2022/10/03 06:25:04;;;;;;;2.03;1.90;;;16.10;65.60;;;;;;5094409;28;20061;-79
2022/10/03 06:28:07;;;;;;;1.77;1.67;;;16.10;65.60;;;;;;5094398;28;20111;-80
2022/10/03 06:31:02;;;;;;;2.20;1.60;;;16.20;65.60;;;;;;5075909;28;20485;-79
2022/10/03 06:34:16;;;;;;;1.90;1.80;;;16.20;65.50;;;;;;5094395;28;20111;-81
2022/10/03 06:37:00;;;;;;;2.17;2.00;;;16.20;65.40;;;;;;5085332;28;20493;-79
2022/10/03 06:39:50;;;;;;;4.40;1.67;;;16.30;65.30;;;;;;5094422;28;20024;-80
2022/10/03 06:42:44;;;;;;;2.55;1.60;;;16.30;65.30;;;;;;5094281;28;20104;-80
2022/10/03 06:45:30;;;;;;;1.60;1.50;;;16.40;65.30;;;;;;5072694;28;20044;-81
2022/10/03 06:48:04;;;;;;;1.70;1.60;;;16.40;65.20;;;;;;5094089;28;20036;-80
2022/10/03 06:50:52;;;;;;;2.28;1.73;;;16.50;65.10;;;;;;5094010;28;20028;-80
2022/10/03 06:53:24;;;;;;;2.10;1.77;;;16.50;64.90;;;;;;5094003;28;20351;-79
2022/10/03 06:56:03;;;;;;;2.33;1.60;;;16.60;64.80;;;;;;5075682;28;20024;-80
2022/10/03 06:59:04;;;;;;;1.63;1.52;;;16.60;64.70;;;;;;5075942;28;20024;-80
2022/10/03 07:01:33;;;;;;;2.13;1.58;;;16.60;64.70;;;;;;5076154;28;20032;-80
2022/10/03 07:04:07;;;;;;;1.65;1.55;;;16.60;64.60;;;;;;5093657;28;20032;-80
2022/10/03 07:06:51;;;;;;;2.00;1.60;;;16.70;64.60;;;;;;5075837;28;20466;-80
2022/10/03 07:09:36;;;;;;;1.73;1.63;;;16.70;64.50;;;;;;5094235;28;20024;-80
2022/10/03 07:12:16;;;;;;;2.00;1.80;;;16.80;64.50;;;;;;5094127;28;20028;-80
2022/10/03 07:14:54;;;;;;;1.80;1.70;;;16.80;64.20;;;;;;5075718;28;20064;-80
2022/10/03 07:17:50;;;;;;;2.05;1.50;;;16.90;64.00;;;;;;5094092;28;20031;-80
2022/10/03 07:20:43;;;;;;;2.45;1.50;;;16.90;63.80;;;;;;5093562;28;20032;-80
2022/10/03 07:23:37;;;;;;;1.67;1.58;;;16.90;63.50;;;;;;5075991;28;20115;-79
2022/10/03 07:26:32;;;;;;;2.83;1.48;;;16.90;63.50;;;;;;5093670;28;20099;-81
2022/10/03 07:29:25;;;;;;;2.92;1.35;;;16.90;63.30;;;;;;5093390;28;20032;-80
2022/10/03 07:32:16;;;;;;;1.52;1.42;;;16.90;63.10;;;;;;5093766;28;20150;-81
2022/10/03 07:35:03;;;;;;;1.60;1.40;;;16.90;63.10;;;;;;5095384;28;20024;-79
2022/10/03 07:41:20;;;;;;;1.48;1.30;;;16.90;62.90;;;;;;5084431;28;20071;-80
2022/10/03 07:44:14;;;;;;;1.60;1.40;;;16.90;62.80;;;;;;5097355;28;20078;-81
2022/10/03 07:47:03;;;;;;;1.40;1.30;;;16.90;63.50;;;;;;5097182;28;20024;-82
2022/10/03 07:50:16;;;;;;;1.30;1.30;;;16.90;62.60;;;;;;5097459;28;20031;-80
2022/10/03 07:53:22;;;;;;;2.00;1.40;;;16.80;62.50;;;;;;5097371;28;20126;-80
2022/10/03 07:56:01;;;;;;;2.05;1.40;;;16.80;62.40;;;;;;5096930;28;20073;-80
2022/10/03 07:58:47;;;;;;;1.80;1.25;;;16.80;62.40;;;;;;5097351;28;20434;-80
2022/10/03 08:01:30;;;;;;;1.92;1.35;;;16.80;62.50;;;;;;5097423;28;20035;-81
2022/10/03 08:04:15;;;;;;;2.47;1.40;;;16.80;62.40;;;;;;5097846;28;20027;-79
2022/10/03 08:06:50;;;;;;;;;;;16.70;62.50;;;;;;5097579;28;20021;-80
2022/10/03 08:09:23;;;;;;;1.23;1.17;;;16.80;62.40;;;;;;5096995;28;19908;-80
2022/10/03 08:12:22;;;;;;;1.67;1.58;;;16.70;62.60;;;;;;5078892;28;20111;-80
2022/10/03 08:15:10;;;;;;;1.58;1.40;;;16.80;62.80;;;;;;5041744;28;20129;-80
2022/10/03 08:18:05;;;;;;;1.65;1.55;;;16.90;62.90;;;;;;5096792;28;20474;-80
2022/10/03 08:20:54;;;;;;;2.03;1.42;;;16.90;62.80;;;;;;5077297;28;20036;-80
2022/10/03 08:23:57;;;;;;;1.60;1.50;;;17.00;63.00;;;;;;5079309;28;20028;-79
2022/10/03 08:27:04;;;;;;;2.22;1.50;;;17.00;62.80;;;;;;5078844;28;20035;-80
2022/10/03 08:29:39;;;;;;;1.48;1.38;;;17.10;62.80;;;;;;5078310;28;20550;-80
2022/10/03 08:32:23;;;;;;;2.03;1.60;;;17.10;62.70;;;;;;5096659;28;20035;-79
2022/10/03 08:35:25;;;;;;;2.83;1.95;;;17.20;62.70;;;;;;5096612;28;20031;-80
2022/10/03 08:38:03;;;;;;;1.95;1.40;;;17.20;62.70;;;;;;5096267;28;20473;-80
2022/10/03 08:40:38;;;;;;;2.38;1.60;;;17.20;62.70;;;;;;5095938;28;20097;-79
2022/10/03 08:43:42;;;;;;;2.13;1.50;;;17.30;62.60;;;;;;5096095;28;20046;-80
2022/10/03 08:46:23;;;;;;;1.63;1.52;;;17.30;62.40;;;;;;5056919;28;20028;-80
2022/10/03 08:49:12;;;;;;;2.13;1.95;;;17.40;62.40;;;;;;5096127;28;20446;-78
2022/10/03 08:52:02;;;;;;;1.60;1.50;;;17.50;62.30;;;;;;5046781;28;20397;-81
2022/10/03 08:54:53;;;;;;;1.70;1.60;;;17.60;62.00;;;;;;5097932;28;20024;-81
2022/10/03 08:57:40;;;;;;;1.60;1.50;;;17.70;61.60;;;;;;5095984;28;20111;-81
2022/10/03 09:00:51;;;;;;;1.15;1.10;;;17.70;61.50;;;;;;5095934;28;20028;-80
2022/10/03 09:03:35;;;;;;;1.25;1.10;;;17.80;61.20;;;;;;5096215;28;20028;-81
2022/10/03 09:06:18;;;;;;;1.52;1.40;;;17.80;61.00;;;;;;5075939;28;20064;-79
2022/10/03 09:09:11;;;;;;;1.38;1.27;;;17.90;60.80;;;;;;5076705;28;20077;-81
2022/10/03 09:11:46;;;;;;;1.25;1.17;;;17.90;60.80;;;;;;5077584;28;20351;-80
2022/10/03 09:14:29;;;;;;;1.20;1.20;;;18.00;60.60;;;;;;5095875;28;20036;-81
2022/10/03 09:17:06;;;;;;;2.55;1.30;;;18.00;60.00;;;;;;5095738;28;20055;-80
2022/10/03 09:19:51;;;;;;;1.30;1.23;;;18.10;60.10;;;;;;5077457;28;20805;-79
2022/10/03 09:22:26;;;;;;;1.58;1.30;;;18.10;59.80;;;;;;5095268;28;20032;-81
2022/10/03 09:25:06;;;;;;;1.40;1.30;;;18.20;59.80;;;;;;5095346;28;20034;-78
2022/10/03 09:27:43;;;;;;;1.30;1.20;;;18.30;59.60;;;;;;5077108;28;20466;-81
2022/10/03 09:30:49;;;;;;;1.35;1.25;;;18.30;59.70;;;;;;5077240;28;20115;-79
2022/10/03 09:33:46;;;;;;;1.50;1.40;;;18.40;59.20;;;;;;5054009;28;20028;-79
2022/10/03 09:36:46;;;;;;;0.90;0.90;;;18.40;59.00;;;;;;5077249;28;20020;-80
2022/10/03 09:39:17;;;;;;;1.52;1.30;;;18.50;59.10;;;;;;5095107;28;20031;-80
2022/10/03 09:42:13;;;;;;;1.55;1.00;;;18.50;59.30;;;;;;5073442;28;20052;-80
2022/10/03 09:45:00;;;;;;;1.10;1.10;;;18.50;58.80;;;;;;5073847;28;20029;-80
2022/10/03 09:47:43;;;;;;;1.65;1.30;;;18.60;59.00;;;;;;5073642;28;20496;-80
2022/10/03 09:50:12;;;;;;;1.40;1.30;;;18.60;59.00;;;;;;5073386;28;20035;-80
2022/10/03 09:53:01;;;;;;;1.17;1.13;;;18.60;59.00;;;;;;5074250;28;20432;-80
2022/10/03 09:55:42;;;;;;;1.50;1.40;;;18.70;59.00;;;;;;5074780;28;20020;-80
2022/10/03 09:58:38;;;;;;;1.40;1.15;;;18.70;58.70;;;;;;5072539;28;20040;-80
2022/10/03 10:01:19;;;;;;;1.67;1.38;;;18.70;58.50;;;;;;5074746;28;20036;-80
2022/10/03 10:03:45;;;;;;;1.38;1.25;;;18.70;58.70;;;;;;5074443;28;20032;-79
2022/10/03 10:06:13;;;;;;;1.55;1.23;;;18.70;58.70;;;;;;5074380;28;20029;-79
2022/10/03 10:08:55;;;;;;;1.15;1.13;;;18.60;58.60;;;;;;5074072;28;20032;-80
2022/10/03 10:11:43;;;;;;;1.60;1.50;;;18.60;58.40;;;;;;5074778;28;20375;-81
2022/10/03 10:14:24;;;;;;;1.63;1.27;;;18.60;58.30;;;;;;5073111;28;20020;-80
2022/10/03 10:17:04;;;;;;;1.52;1.42;;;18.60;58.50;;;;;;5074247;28;20052;-81
2022/10/03 10:19:42;;;;;;;1.45;1.15;;;18.50;58.40;;;;;;5074362;28;20025;-81
2022/10/03 10:22:42;;;;;;;1.48;1.38;;;18.40;58.50;;;;;;5073541;28;20043;-81
2022/10/03 10:25:45;;;;;;;1.30;1.20;;;18.30;58.50;;;;;;5075364;28;20025;-80
2022/10/03 10:28:29;;;;;;;1.23;1.23;;;18.20;58.50;;;;;;5074751;28;20382;-80
2022/10/03 10:31:12;;;;;;;1.48;1.38;;;18.20;58.80;;;;;;5074213;28;20029;-81
2022/10/03 10:34:13;;;;;;;3.20;1.50;;;18.10;58.90;;;;;;5072751;28;20052;-80
2022/10/03 10:37:06;;;;;;;1.27;1.13;;;18.10;59.20;;;;;;5073898;28;20028;-79
2022/10/03 10:40:07;;;;;;;1.63;1.40;;;18.20;59.20;;;;;;5073885;28;20051;-80
2022/10/03 10:42:57;;;;;;;1.30;1.20;;;18.30;59.30;;;;;;5001817;28;20108;-80
2022/10/03 10:45:57;;;;;;;1.30;1.20;;;18.30;59.00;;;;;;5074079;28;20066;-81
2022/10/03 10:49:20;;;;;;;1.35;1.10;;;18.40;59.00;;;;;;5072649;28;20024;-82
2022/10/03 10:52:00;;;;;;;1.38;1.27;;;18.40;58.70;;;;;;4992255;28;20107;-80
2022/10/03 10:54:47;;;;;;;1.42;1.30;;;18.40;58.80;;;;;;4975833;28;20230;-82
2022/10/03 10:57:25;;;;;;;1.20;1.20;;;18.40;58.80;;;;;;5060555;28;20410;-79
2022/10/03 11:00:14;;;;;;;1.45;1.23;;;18.40;58.80;;;;;;5073052;28;20417;-80
2022/10/03 11:03:04;;;;;;;1.25;1.20;;;18.40;58.80;;;;;;5072434;28;20033;-80
2022/10/03 11:05:57;;;;;;;1.17;1.05;;;18.40;58.80;;;;;;5073446;28;20449;-79
2022/10/03 11:08:59;;;;;;;1.10;1.00;;;18.40;58.80;;;;;;5073563;28;20024;-80
2022/10/03 11:11:31;;;;;;;1.83;1.30;;;18.40;58.70;;;;;;5077779;28;20105;-81
2022/10/03 11:14:06;;;;;;;1.30;1.20;;;18.40;58.80;;;;;;5076070;28;20081;-81
2022/10/03 11:16:53;;;;;;;1.33;1.02;;;18.50;58.80;;;;;;5076435;28;20024;-80
2022/10/03 11:19:52;;;;;;;1.58;1.42;;;18.60;58.80;;;;;;5076226;28;20031;-80
2022/10/03 11:22:38;;;;;;;1.05;1.05;;;18.70;58.50;;;;;;5076155;28;20039;-81
2022/10/03 11:25:46;;;;;;;1.70;1.30;;;18.80;58.50;;;;;;5077648;28;20104;-80
2022/10/03 11:28:31;;;;;;;1.20;1.10;;;18.90;58.30;;;;;;5077247;28;20033;-81
2022/10/03 11:31:26;;;;;;;1.40;1.30;;;19.00;58.50;;;;;;5076525;28;20416;-80
2022/10/03 11:34:26;;;;;;;1.40;1.30;;;19.10;58.30;;;;;;5077247;28;20467;-81
2022/10/03 11:36:51;;;;;;;1.30;1.20;;;19.20;58.10;;;;;;5077208;28;20454;-80
2022/10/03 11:39:54;;;;;;;1.35;1.25;;;19.30;58.20;;;;;;5077226;28;20029;-81
2022/10/03 11:42:39;;;;;;;1.25;1.25;;;19.40;57.90;;;;;;5076931;28;20041;-78
2022/10/03 11:45:15;;;;;;;1.13;1.02;;;19.40;58.00;;;;;;5076281;28;20097;-80
2022/10/03 11:47:54;;;;;;;1.70;1.60;;;19.40;57.90;;;;;;5076456;28;20028;-81
2022/10/03 11:50:37;;;;;;;1.45;1.35;;;19.50;57.90;;;;;;5077021;28;20027;-79
2022/10/03 11:53:22;;;;;;;2.22;1.42;;;19.50;57.80;;;;;;5076812;28;20467;-80
2022/10/03 11:55:50;;;;;;;;;;;19.50;57.60;;;;;;5076089;28;20127;-81
2022/10/03 11:58:40;;;;;;;1.58;1.30;;;19.50;57.50;;;;;;5077313;28;19909;-79
2022/10/03 12:01:15;;;;;;;1.38;1.27;;;19.40;57.40;;;;;;5075732;28;20123;-80
2022/10/03 12:04:07;;;;;;;1.52;1.40;;;19.30;57.60;;;;;;5076809;28;20474;-81
2022/10/03 12:09:53;;;;;;;1.45;1.35;;;19.10;57.80;;;;;;5076971;28;20447;-82
2022/10/03 12:12:37;;;;;;;1.83;1.50;;;18.90;58.00;;;;;;5075093;28;20036;-80
2022/10/03 12:15:25;;;;;;;3.60;1.20;;;18.80;58.40;;;;;;5076573;28;20029;-80
2022/10/03 12:18:20;;;;;;;1.30;1.20;;;18.70;58.70;;;;;;5076586;28;20033;-80
2022/10/03 12:21:09;;;;;;;1.20;1.20;;;18.70;58.90;;;;;;5074006;28;20068;-80
2022/10/03 12:24:01;;;;;;;1.02;1.02;;;18.70;59.00;;;;;;5076547;28;20072;-81
2022/10/03 12:26:36;;;;;;;1.65;1.00;;;18.70;59.20;;;;;;5075466;28;20025;-81
2022/10/03 12:29:07;;;;;;;1.73;1.05;;;18.70;59.30;;;;;;5076715;28;20103;-80
2022/10/03 12:31:52;;;;;;;1.20;1.05;;;18.80;59.40;;;;;;5075548;28;20029;-81
2022/10/03 12:34:39;;;;;;;1.13;1.13;;;18.90;59.40;;;;;;5076337;28;20096;-81
2022/10/03 12:37:35;;;;;;;2.22;1.10;;;19.00;59.40;;;;;;5075905;28;20074;-81
2022/10/03 12:40:20;;;;;;;1.67;1.40;;;19.10;59.30;;;;;;5078714;28;20052;-80
2022/10/03 12:43:03;;;;;;;1.30;1.20;;;19.10;59.20;;;;;;5080911;28;20081;-81
2022/10/03 12:45:39;;;;;;;1.20;1.10;;;19.10;59.20;;;;;;5061935;28;20480;-80
2022/10/03 12:48:38;;;;;;;1.15;1.05;;;19.00;59.20;;;;;;5078920;28;20028;-80
2022/10/03 12:51:13;;;;;;;1.15;1.15;;;19.00;59.40;;;;;;5072434;28;20410;-81
2022/10/03 12:53:58;;;;;;;1.00;1.00;;;18.90;59.40;;;;;;5096396;28;20027;-80
2022/10/03 12:56:33;;;;;;;1.02;1.02;;;18.80;59.50;;;;;;5078341;28;20374;-81
2022/10/03 12:59:13;;;;;;;1.60;1.30;;;18.80;59.70;;;;;;5096555;28;20069;-80
2022/10/03 13:02:14;;;;;;;1.67;1.10;;;18.80;59.80;;;;;;5078033;28;20024;-80
2022/10/03 13:04:43;;;;;;;1.35;1.25;;;18.70;59.90;;;;;;4994255;28;20425;-80
2022/10/03 13:07:21;;;;;;;1.30;1.20;;;18.70;60.00;;;;;;5076841;28;20036;-80
2022/10/03 13:10:01;;;;;;;1.52;1.42;;;18.70;60.00;;;;;;5095860;28;20055;-83
2022/10/03 13:12:51;;;;;;;1.45;1.20;;;18.60;60.00;;;;;;5095626;28;20032;-79
2022/10/03 13:15:36;;;;;;;1.17;1.17;;;18.60;60.00;;;;;;5095737;28;20028;-81
2022/10/03 13:18:02;;;;;;;;;;;18.50;60.00;;;;;;5096103;28;20023;-79
2022/10/03 13:20:44;;;;;;;1.08;1.08;;;18.40;60.10;;;;;;5095757;28;20265;-84
2022/10/03 13:23:15;;;;;;;0.95;0.88;;;18.40;60.10;;;;;;5077114;28;20042;-79
2022/10/03 13:25:54;;;;;;;1.25;1.15;;;18.30;60.20;;;;;;5095532;28;20042;-80
2022/10/03 13:28:41;;;;;;;1.42;1.33;;;18.30;60.30;;;;;;5095299;28;20027;-80
2022/10/03 13:31:19;;;;;;;1.05;1.05;;;18.40;60.40;;;;;;5077136;28;20036;-81
2022/10/03 13:33:54;;;;;;;1.30;1.15;;;18.40;60.30;;;;;;5094824;28;20504;-81
2022/10/03 13:36:45;;;;;;;1.23;1.00;;;18.40;60.30;;;;;;5095304;28;20458;-81
2022/10/03 13:39:32;;;;;;;1.00;1.00;;;18.40;60.30;;;;;;5095762;28;20052;-81
2022/10/03 13:42:14;;;;;;;0.90;0.90;;;18.40;60.50;;;;;;5095858;28;20048;-81
2022/10/03 13:44:54;;;;;;;2.35;1.38;;;18.60;60.50;;;;;;5077317;28;20020;-79
2022/10/03 13:47:42;;;;;;;1.15;1.15;;;18.80;60.30;;;;;;5077013;28;20077;-82
2022/10/03 13:50:20;;;;;;;1.38;1.20;;;19.10;60.10;;;;;;5076866;28;20024;-81
2022/10/03 13:52:45;;;;;;;1.95;1.13;;;19.40;59.80;;;;;;5095270;28;20043;-79
2022/10/03 13:55:34;;;;;;;1.33;1.20;;;19.60;59.20;;;;;;5076804;28;20023;-82
2022/10/03 13:58:54;;;;;;;1.73;1.42;;;19.80;59.00;;;;;;5076944;28;20028;-80
2022/10/03 14:01:32;;;;;;;1.27;1.17;;;20.00;58.70;;;;;;5075899;28;20043;-80
2022/10/03 14:04:51;;;;;;;1.30;1.20;;;20.10;58.70;;;;;;5077070;28;20020;-81
2022/10/03 14:07:27;;;;;;;2.28;1.50;;;20.50;58.50;;;;;;4992991;28;20038;-80
2022/10/03 14:10:15;;;;;;;1.33;1.23;;;20.60;58.00;;;;;;4976840;28;20049;-80
2022/10/03 14:13:16;;;;;;;1.50;1.40;;;20.50;57.80;;;;;;5055662;28;20039;-81
2022/10/03 14:16:05;;;;;;;1.27;1.17;;;20.40;57.60;;;;;;5076253;28;20024;-79
2022/10/03 14:18:47;;;;;;;1.70;1.30;;;20.30;57.70;;;;;;5076407;28;20050;-81
2022/10/03 14:21:27;;;;;;;1.70;1.13;;;20.10;57.60;;;;;;5076193;28;20035;-81
2022/10/03 14:24:19;;;;;;;1.10;1.10;;;19.90;57.80;;;;;;5076264;28;20032;-80
2022/10/03 14:27:01;;;;;;;1.13;1.02;;;19.80;58.00;;;;;;5076034;28;20176;-80
2022/10/03 14:29:35;;;;;;;1.27;1.17;;;19.60;58.00;;;;;;5093952;28;20066;-80
2022/10/03 14:32:08;;;;;;;3.90;1.17;;;19.50;58.30;;;;;;5093824;28;20541;-81
2022/10/03 14:34:46;;;;;;;1.30;1.10;;;19.30;58.40;;;;;;5094063;28;20091;-81
2022/10/03 14:37:36;;;;;;;1.25;1.17;;;19.20;58.50;;;;;;5094388;28;20024;-79